Terminal Aerodrome Forecast
Issued by NWS

Home | Current Version | Previous Version | Text Only | Print | Product List | Glossary On
Versions: 1 2 3 4 5 6 7 8 9 10 11 12 13 14 15 16 17 18 19 20 21
000
FTUS43 KLSX 281700
TAFSUS
TAF
KSUS 281736Z 2818/2918 15013G20KT P6SM SCT250
     FM290000 16010KT P6SM BKN150
     FM290200 18011KT P6SM BKN150 WS018/23050KT
     FM290800 24013G20KT P6SM SCT060 BKN150
     FM291200 29015G25KT P6SM OVC020=

USA.gov is the U.S. government's official web portal to all federal, state and local government web resources and services.